Hedvig Bulker — OWYM2 — position and weather

sailwx.info

Track history (hours):
 
Tides and Currents Weather Stations Pressure Air Temp Water Temp Dewpoint Dewpoint Depression Visibility Wind Speed Wind Dir Waves Ship Positions

Hedvig Bulker

Last reported at 2018-Apr-24 00:37 UTC. Time now 2018-Apr-24 05:06 UTC.
Position N 43°36' W 005°57'.

Length 175 m; draft 6.5 m.

Type: Ship. MMSI: 219594000.

Date/timePositionNaut miles runAvg speedWind from/ knotsBaromVisibWave heightAir tempDewpointWater temp
2018-Apr-24 00:37N 43°36' W 005°57'2 6.2
2018-Apr-24 00:14N 43°37' W 005°59'311.0
2018-Apr-23 23:57N 43°39' W 006°03'511.2
2018-Apr-23 23:29N 43°42' W 006°09'4413.2
2018-Apr-23 20:12N 43°58' W 007°05'313.7
2018-Apr-23 19:59N 43°58' W 007°09'713.8
2018-Apr-23 19:30N 43°58' W 007°18'713.6
2018-Apr-23 19:01N 43°58' W 007°28'713.7
2018-Apr-23 18:30N 43°58' W 007°37'713.4
2018-Apr-23 18:00N 43°59' W 007°47'28411.5
2018-Apr-22 17:11N 39°39' W 010°24'413.2
2018-Apr-22 16:51N 39°35' W 010°25'413.0
2018-Apr-22 16:31N 39°31' W 010°26'1813.1
2018-Apr-22 15:10N 39°13' W 010°30'313.2
2018-Apr-22 14:57N 39°11' W 010°30'613.2
2018-Apr-22 14:30N 39°05' W 010°31'713.8
2018-Apr-22 14:00N 38°58' W 010°32'1213.5
2018-Apr-22 13:06N 38°46' W 010°32'313.5
2018-Apr-22 12:53N 38°43' W 010°31'1013.7
2018-Apr-22 12:10N 38°33' W 010°28'214.0
2018-Apr-22 11:59N 38°31' W 010°28'814.0
2018-Apr-22 11:27N 38°23' W 010°26'614.1
2018-Apr-22 10:59N 38°17' W 010°24'713.9
2018-Apr-22 10:30N 38°11' W 010°22'26412.1
2018-Apr-21 12:40N 35°58' W 005°36'213.0
2018-Apr-21 12:29N 35°58' W 005°34'612.1
2018-Apr-21 12:00N 36°00' W 005°27'611.4
2018-Apr-21 11:30N 36°05' W 005°23'3 3.6
2018-Apr-21 10:47N 36°07' W 005°22'0 0.1
2018-Apr-21 10:29N 36°07' W 005°22'0 0.0
2018-Apr-21 09:59N 36°07' W 005°22'0 0.1
2018-Apr-21 09:29N 36°07' W 005°22'0 0.1
2018-Apr-21 08:59N 36°07' W 005°22'0 0.1
2018-Apr-21 08:14N 36°07' W 005°22'0 0.1
2018-Apr-21 07:59N 36°07' W 005°22'0 0.0
2018-Apr-21 07:29N 36°07' W 005°22'0 0.1
2018-Apr-21 06:59N 36°07' W 005°22'0 0.0
2018-Apr-21 06:29N 36°07' W 005°22'0 0.1
2018-Apr-21 05:59N 36°07' W 005°22'0 0.0
2018-Apr-21 05:29N 36°07' W 005°22'0 0.0
2018-Apr-21 04:59N 36°07' W 005°22'0 0.1
2018-Apr-21 04:29N 36°07' W 005°22'0 0.0
2018-Apr-21 03:59N 36°07' W 005°22'0 0.0
2018-Apr-21 03:29N 36°07' W 005°22'0 0.0
2018-Apr-21 02:59N 36°07' W 005°22'0 0.1
2018-Apr-21 02:29N 36°07' W 005°22'0 0.0
2018-Apr-21 01:59N 36°07' W 005°22'0 0.1
2018-Apr-21 01:29N 36°07' W 005°22'0 0.1
2018-Apr-21 00:47N 36°07' W 005°22'0 0.5
2018-Apr-21 00:29N 36°07' W 005°22'1 1.9
2018-Apr-21 00:00N 36°06' W 005°22'3 5.9
2018-Apr-20 23:30N 36°06' W 005°18'9 8.3
2018-Apr-20 22:24N 36°06' W 005°07'2 4.7
2018-Apr-20 22:00N 36°05' W 005°09'2 4.6
2018-Apr-20 21:30N 36°03' W 005°11'2 4.4
2018-Apr-20 21:00N 36°02' W 005°13'2 4.5
2018-Apr-20 20:30N 36°01' W 005°16'2 3.9
2018-Apr-20 20:00N 36°01' W 005°18'4 8.1
2018-Apr-20 19:30N 35°59' W 005°23'612.4
2018-Apr-20 19:00N 35°57' W 005°30'  
Track history (hours):
 
Tides and Currents Weather Stations Pressure Air Temp Water Temp Dewpoint Dewpoint Depression Visibility Wind Speed Wind Dir Waves Ship Positions

Hedvig Bulker

Last reported at 2018-Apr-24 00:37 UTC. Time now 2018-Apr-24 05:06 UTC.
Position N 43°36' W 005°57'.

Length 175 m; draft 6.5 m.

Type: Ship. MMSI: 219594000.

Date/timePositionNaut miles runAvg speedWind from/ knotsBaromVisibWave heightAir tempDewpointWater temp
2018-Apr-24 00:37N 43°36' W 005°57'2 6.2
2018-Apr-24 00:14N 43°37' W 005°59'311.0
2018-Apr-23 23:57N 43°39' W 006°03'511.2
2018-Apr-23 23:29N 43°42' W 006°09'4413.2
2018-Apr-23 20:12N 43°58' W 007°05'313.7
2018-Apr-23 19:59N 43°58' W 007°09'713.8
2018-Apr-23 19:30N 43°58' W 007°18'713.6
2018-Apr-23 19:01N 43°58' W 007°28'713.7
2018-Apr-23 18:30N 43°58' W 007°37'713.4
2018-Apr-23 18:00N 43°59' W 007°47'28411.5
2018-Apr-22 17:11N 39°39' W 010°24'413.2
2018-Apr-22 16:51N 39°35' W 010°25'413.0
2018-Apr-22 16:31N 39°31' W 010°26'1813.1
2018-Apr-22 15:10N 39°13' W 010°30'313.2
2018-Apr-22 14:57N 39°11' W 010°30'613.2
2018-Apr-22 14:30N 39°05' W 010°31'713.8
2018-Apr-22 14:00N 38°58' W 010°32'1213.5
2018-Apr-22 13:06N 38°46' W 010°32'313.5
2018-Apr-22 12:53N 38°43' W 010°31'1013.7
2018-Apr-22 12:10N 38°33' W 010°28'214.0
2018-Apr-22 11:59N 38°31' W 010°28'814.0
2018-Apr-22 11:27N 38°23' W 010°26'614.1
2018-Apr-22 10:59N 38°17' W 010°24'713.9
2018-Apr-22 10:30N 38°11' W 010°22'26412.1
2018-Apr-21 12:40N 35°58' W 005°36'213.0
2018-Apr-21 12:29N 35°58' W 005°34'612.1
2018-Apr-21 12:00N 36°00' W 005°27'611.4
2018-Apr-21 11:30N 36°05' W 005°23'3 3.6
2018-Apr-21 10:47N 36°07' W 005°22'0 0.1
2018-Apr-21 10:29N 36°07' W 005°22'0 0.0
2018-Apr-21 09:59N 36°07' W 005°22'0 0.1
2018-Apr-21 09:29N 36°07' W 005°22'0 0.1
2018-Apr-21 08:59N 36°07' W 005°22'0 0.1
2018-Apr-21 08:14N 36°07' W 005°22'0 0.1
2018-Apr-21 07:59N 36°07' W 005°22'0 0.0
2018-Apr-21 07:29N 36°07' W 005°22'0 0.1
2018-Apr-21 06:59N 36°07' W 005°22'0 0.0
2018-Apr-21 06:29N 36°07' W 005°22'0 0.1
2018-Apr-21 05:59N 36°07' W 005°22'0 0.0
2018-Apr-21 05:29N 36°07' W 005°22'0 0.0
2018-Apr-21 04:59N 36°07' W 005°22'0 0.1
2018-Apr-21 04:29N 36°07' W 005°22'0 0.0
2018-Apr-21 03:59N 36°07' W 005°22'0 0.0
2018-Apr-21 03:29N 36°07' W 005°22'0 0.0
2018-Apr-21 02:59N 36°07' W 005°22'0 0.1
2018-Apr-21 02:29N 36°07' W 005°22'0 0.0
2018-Apr-21 01:59N 36°07' W 005°22'0 0.1
2018-Apr-21 01:29N 36°07' W 005°22'0 0.1
2018-Apr-21 00:47N 36°07' W 005°22'0 0.5
2018-Apr-21 00:29N 36°07' W 005°22'1 1.9
2018-Apr-21 00:00N 36°06' W 005°22'3 5.9
2018-Apr-20 23:30N 36°06' W 005°18'9 8.3
2018-Apr-20 22:24N 36°06' W 005°07'2 4.7
2018-Apr-20 22:00N 36°05' W 005°09'2 4.6
2018-Apr-20 21:30N 36°03' W 005°11'2 4.4
2018-Apr-20 21:00N 36°02' W 005°13'2 4.5
2018-Apr-20 20:30N 36°01' W 005°16'2 3.9
2018-Apr-20 20:00N 36°01' W 005°18'4 8.1
2018-Apr-20 19:30N 35°59' W 005°23'612.4
2018-Apr-20 19:00N 35°57' W 005°30'  

Dump ship's entire track history